createdAt,value
2022-09-21T00:02:09.100Z,100772.81
2022-09-21T00:04:38.398Z,100773.75
2022-09-21T00:07:07.470Z,100777.47
2022-09-21T00:09:36.710Z,100771.31
2022-09-21T00:12:06.037Z,100768.72
2022-09-21T00:14:35.310Z,100771.88
2022-09-21T00:17:04.448Z,100778.63
2022-09-21T00:19:36.569Z,100774.44
2022-09-21T00:22:05.911Z,100768.59
2022-09-21T00:24:36.316Z,100777.06
2022-09-21T00:27:06.002Z,100776.75
2022-09-21T00:29:36.490Z,100781.69
2022-09-21T00:32:06.795Z,100772.28
2022-09-21T00:34:36.120Z,100780.78
2022-09-21T00:37:05.590Z,100781.47
2022-09-21T00:39:35.272Z,100779.69
2022-09-21T00:42:30.075Z,100784.19
2022-09-21T00:45:00.427Z,100780.97
2022-09-21T00:47:36.534Z,100779.16
2022-09-21T00:50:15.391Z,100796.09
2022-09-21T00:52:58.216Z,100783.88
2022-09-21T00:55:35.984Z,100790.34
2022-09-21T00:58:13.315Z,100786.13
2022-09-21T01:00:44.403Z,100773.28
2022-09-21T01:03:14.655Z,100777.38
2022-09-21T01:05:44.183Z,100779.34
2022-09-21T01:08:18.044Z,100784.06
2022-09-21T01:11:06.026Z,100786.13
2022-09-21T01:14:11.355Z,100793.66
2022-09-21T01:16:55.407Z,100794.06
2022-09-21T01:20:04.665Z,100791.88
2022-09-21T01:22:48.217Z,100793.69
2022-09-21T01:25:50.954Z,100802.38
2022-09-21T01:28:21.778Z,100801.88
2022-09-21T01:30:54.753Z,100800.41
2022-09-21T01:33:50.203Z,100798.56
2022-09-21T01:36:28.293Z,100799.69
2022-09-21T01:39:03.861Z,100807.56
2022-09-21T01:41:34.312Z,100824.09
2022-09-21T01:44:17.781Z,100819.28
2022-09-21T01:46:49.584Z,100818.03
2022-09-21T01:49:31.601Z,100823.28
2022-09-21T01:52:12.991Z,100826.09
2022-09-21T01:54:56.838Z,100830.41
2022-09-21T01:57:48.330Z,100820.38
2022-09-21T02:00:21.733Z,100827.69
2022-09-21T02:03:01.252Z,100832.47
2022-09-21T02:05:31.576Z,100823.72
2022-09-21T02:08:02.441Z,100828.13
2022-09-21T02:10:46.972Z,100835.09
2022-09-21T02:13:18.528Z,100834.31
2022-09-21T02:16:04.943Z,100825.69
2022-09-21T02:18:49.175Z,100831.59
2022-09-21T02:21:35.908Z,100830.00
2022-09-21T02:24:23.799Z,100838.13
2022-09-21T02:27:00.482Z,100838.06
2022-09-21T02:29:39.668Z,100830.44
2022-09-21T02:32:34.998Z,100838.53
2022-09-21T02:35:21.976Z,100833.56
2022-09-21T02:38:18.142Z,100838.94
2022-09-21T02:41:01.043Z,100838.16
2022-09-21T02:43:47.252Z,100843.19
2022-09-21T02:46:26.910Z,100851.69
2022-09-21T02:49:09.690Z,100853.19
2022-09-21T02:51:50.642Z,100860.91
2022-09-21T02:54:23.534Z,100854.50
2022-09-21T02:56:56.226Z,100861.66
2022-09-21T02:59:25.930Z,100866.59
2022-09-21T03:01:56.908Z,100870.19
2022-09-21T03:04:28.918Z,100861.63
2022-09-21T03:06:58.853Z,100863.69
2022-09-21T03:09:27.970Z,100867.94
2022-09-21T03:11:57.268Z,100876.06
2022-09-21T03:14:26.458Z,100875.59
2022-09-21T03:16:55.724Z,100873.00
2022-09-21T03:19:24.936Z,100874.47
2022-09-21T03:21:55.534Z,100886.59
2022-09-21T03:24:44.445Z,100885.00
2022-09-21T03:27:19.382Z,100880.97
2022-09-21T03:29:51.532Z,100885.59
2022-09-21T03:32:20.925Z,100882.28
2022-09-21T03:34:51.662Z,100888.88
2022-09-21T03:37:21.198Z,100878.16
2022-09-21T03:39:50.820Z,100889.63
2022-09-21T03:42:20.191Z,100889.81
2022-09-21T03:44:52.988Z,100893.41
2022-09-21T03:47:26.923Z,100902.13
2022-09-21T03:49:57.929Z,100895.97
2022-09-21T03:52:27.930Z,100901.69
2022-09-21T03:54:57.988Z,100901.97
2022-09-21T03:57:27.625Z,100901.28
2022-09-21T04:00:00.194Z,100897.06
2022-09-21T04:02:30.151Z,100908.66
2022-09-21T04:04:59.819Z,100901.97
2022-09-21T04:07:35.325Z,100898.09
2022-09-21T04:10:09.952Z,100900.44
2022-09-21T04:12:39.646Z,100895.88
2022-09-21T04:15:15.099Z,100891.22
2022-09-21T04:17:45.521Z,100885.94
2022-09-21T04:20:15.049Z,100897.94
2022-09-21T04:22:48.069Z,100897.81
2022-09-21T04:25:17.858Z,100904.63
2022-09-21T04:27:47.727Z,100917.59
2022-09-21T04:30:18.076Z,100909.44
2022-09-21T04:32:48.821Z,100912.75
2022-09-21T04:35:18.705Z,100911.63
2022-09-21T04:37:50.905Z,100914.75
2022-09-21T04:40:20.631Z,100917.94
2022-09-21T04:42:54.563Z,100915.91
2022-09-21T04:45:25.211Z,100925.13
2022-09-21T04:47:57.780Z,100920.31
2022-09-21T04:50:26.985Z,100927.91
2022-09-21T04:53:06.753Z,100924.97
2022-09-21T04:55:39.424Z,100922.63
2022-09-21T04:58:14.154Z,100923.31
2022-09-21T05:00:44.193Z,100925.41
2022-09-21T05:03:13.577Z,100931.13
2022-09-21T05:06:09.202Z,100932.56
2022-09-21T05:09:02.939Z,100923.72
2022-09-21T05:11:35.374Z,100925.59
2022-09-21T05:14:05.300Z,100928.97
2022-09-21T05:16:35.160Z,100937.06
2022-09-21T05:19:04.837Z,100937.91
2022-09-21T05:21:34.351Z,100933.97
2022-09-21T05:24:04.860Z,100935.41
2022-09-21T05:26:34.742Z,100944.69
2022-09-21T05:29:05.169Z,100943.16
2022-09-21T05:32:04.846Z,100944.09
2022-09-21T05:34:43.077Z,100946.63
2022-09-21T05:37:53.818Z,100946.63
2022-09-21T05:40:23.504Z,100945.84
2022-09-21T05:42:53.113Z,100947.66
2022-09-21T05:45:23.935Z,100946.25
2022-09-21T05:48:21.293Z,100953.97
2022-09-21T05:50:59.004Z,100948.41
2022-09-21T05:53:37.200Z,100951.69
2022-09-21T05:56:27.957Z,100961.03
2022-09-21T05:59:32.865Z,100951.50
2022-09-21T06:02:13.941Z,100950.72
2022-09-21T06:04:48.541Z,100952.44
2022-09-21T06:07:18.904Z,100954.94
2022-09-21T06:09:49.281Z,100946.25
2022-09-21T06:12:18.664Z,100956.31
2022-09-21T06:14:47.736Z,100958.34
2022-09-21T06:17:17.042Z,100958.41
2022-09-21T06:19:46.738Z,100962.09
2022-09-21T06:22:16.067Z,100959.31
2022-09-21T06:24:45.323Z,100967.38
2022-09-21T06:27:14.669Z,100962.63
2022-09-21T06:29:44.090Z,100956.25
2022-09-21T06:32:13.797Z,100949.19
2022-09-21T06:34:43.942Z,100944.88
2022-09-21T06:37:13.335Z,100950.31
2022-09-21T06:39:42.611Z,100948.22
2022-09-21T06:42:11.870Z,100952.56
2022-09-21T06:44:41.152Z,100946.97
2022-09-21T06:47:10.476Z,100953.81
2022-09-21T06:49:42.554Z,100952.66
2022-09-21T06:52:19.471Z,100951.88
2022-09-21T06:54:49.134Z,100961.63
2022-09-21T06:57:18.777Z,100961.63
2022-09-21T06:59:48.014Z,100959.22
2022-09-21T07:02:17.341Z,100955.66
2022-09-21T07:04:46.573Z,100956.94
2022-09-21T07:07:21.409Z,100953.81
2022-09-21T07:10:06.888Z,100954.66
2022-09-21T07:12:37.419Z,100949.88
2022-09-21T07:15:08.460Z,100955.72
2022-09-21T07:17:40.594Z,100965.53
2022-09-21T07:20:10.128Z,100956.53
2022-09-21T07:22:42.932Z,100961.19
2022-09-21T07:25:13.239Z,100966.81
2022-09-21T07:27:43.356Z,100967.19
2022-09-21T07:30:13.298Z,100963.56
2022-09-21T07:32:42.866Z,100968.72
2022-09-21T07:35:18.130Z,100976.31
2022-09-21T07:37:48.898Z,100969.97
2022-09-21T07:40:20.836Z,100974.34
2022-09-21T07:43:03.731Z,100970.00
2022-09-21T07:45:33.233Z,100971.63
2022-09-21T07:48:07.424Z,100978.47
2022-09-21T07:50:37.259Z,100974.88
2022-09-21T07:53:06.891Z,100972.47
2022-09-21T07:55:36.903Z,100970.88
2022-09-21T07:58:24.289Z,100974.84
2022-09-21T08:00:53.785Z,100974.88
2022-09-21T08:03:23.472Z,100981.22
2022-09-21T08:05:53.461Z,100978.88
2022-09-21T08:08:23.106Z,100974.13
2022-09-21T08:10:54.143Z,100976.47
2022-09-21T08:13:23.612Z,100978.06
2022-09-21T08:16:00.264Z,100971.69
2022-09-21T08:18:29.692Z,100969.31
2022-09-21T08:21:01.882Z,100967.72
2022-09-21T08:23:31.918Z,100967.72
2022-09-21T08:26:08.871Z,100970.50
2022-09-21T08:28:38.443Z,100974.06
2022-09-21T08:31:10.927Z,100968.50
2022-09-21T08:33:40.417Z,100970.09
2022-09-21T08:36:11.065Z,100974.47
2022-09-21T08:38:41.084Z,100968.09
2022-09-21T08:41:57.677Z,100965.31
2022-09-21T08:44:34.920Z,100964.50
2022-09-21T08:47:35.087Z,100969.25
2022-09-21T08:50:07.090Z,100971.66
2022-09-21T08:52:38.624Z,100963.69
2022-09-21T08:55:18.163Z,100966.09
2022-09-21T08:57:48.028Z,100959.31
2022-09-21T09:00:20.128Z,100963.66
2022-09-21T09:03:13.049Z,100969.22
2022-09-21T09:05:53.018Z,100966.03
2022-09-21T09:08:39.286Z,100967.63
2022-09-21T09:11:23.999Z,100971.56
2022-09-21T09:14:11.668Z,100961.69
2022-09-21T09:17:08.425Z,100967.50
2022-09-21T09:19:47.895Z,100962.75
2022-09-21T09:22:28.789Z,100972.72
2022-09-21T09:25:04.860Z,100972.28
2022-09-21T09:27:42.969Z,100972.28
2022-09-21T09:30:17.917Z,100969.06
2022-09-21T09:33:02.214Z,100973.44
2022-09-21T09:35:40.697Z,100964.22
2022-09-21T09:38:30.640Z,100974.97
2022-09-21T09:41:23.753Z,100971.38
2022-09-21T09:44:14.254Z,100966.59
2022-09-21T09:46:56.269Z,100967.38
2022-09-21T09:49:56.273Z,100969.25
2022-09-21T09:52:26.337Z,100971.22
2022-09-21T09:54:55.966Z,100977.56
2022-09-21T09:57:34.490Z,100983.19
2022-09-21T10:00:13.383Z,100973.63
2022-09-21T10:02:50.464Z,100966.81
2022-09-21T10:05:26.912Z,100971.09
2022-09-21T10:07:56.182Z,100965.53
2022-09-21T10:10:32.328Z,100964.81
2022-09-21T10:13:32.768Z,100965.56
2022-09-21T10:16:24.233Z,100964.75
2022-09-21T10:19:02.474Z,100973.84
2022-09-21T10:21:59.213Z,100968.72
2022-09-21T10:24:34.433Z,100977.06
2022-09-21T10:27:18.037Z,100968.75
2022-09-21T10:29:49.656Z,100971.16
2022-09-21T10:32:27.535Z,100973.13
2022-09-21T10:35:19.054Z,100974.31
2022-09-21T10:37:54.651Z,100971.88
2022-09-21T10:40:24.671Z,100964.69
2022-09-21T10:42:59.386Z,100962.28
2022-09-21T10:45:38.175Z,100963.72
2022-09-21T10:48:07.623Z,100960.47
2022-09-21T10:50:42.012Z,100962.16
2022-09-21T10:53:11.214Z,100969.75
2022-09-21T10:56:16.458Z,100966.28
2022-09-21T10:59:16.510Z,100961.44
2022-09-21T11:01:48.849Z,100964.94
2022-09-21T11:04:45.285Z,100958.56
2022-09-21T11:07:50.825Z,100952.66
2022-09-21T11:10:19.990Z,100956.13
2022-09-21T11:13:13.545Z,100956.56
2022-09-21T11:15:48.780Z,100958.91
2022-09-21T11:18:34.930Z,100961.22
2022-09-21T11:21:24.141Z,100952.00
2022-09-21T11:24:46.594Z,100941.28
2022-09-21T11:27:33.126Z,100953.19
2022-09-21T11:30:11.157Z,100946.81
2022-09-21T11:33:10.711Z,100945.09
2022-09-21T11:35:49.808Z,100945.09
2022-09-21T11:38:56.317Z,100934.78
2022-09-21T11:41:55.155Z,100928.84
2022-09-21T11:44:51.782Z,100934.84
2022-09-21T11:47:26.632Z,100930.88
2022-09-21T11:50:29.185Z,100929.94
2022-09-21T11:53:23.824Z,100926.03
2022-09-21T11:55:55.904Z,100922.06
2022-09-21T11:58:58.680Z,100921.63
2022-09-21T12:01:39.518Z,100918.38
2022-09-21T12:04:45.080Z,100915.19
2022-09-21T12:07:28.686Z,100913.88
2022-09-21T12:10:29.429Z,100922.19
2022-09-21T12:13:07.640Z,100917.03
2022-09-21T12:15:51.406Z,100906.06
2022-09-21T12:18:45.301Z,100919.53
2022-09-21T12:21:45.054Z,100915.56
2022-09-21T12:24:42.995Z,100914.19
2022-09-21T12:27:39.369Z,100909.81
2022-09-21T12:30:23.974Z,100910.66
2022-09-21T12:33:02.604Z,100902.59
2022-09-21T12:35:47.698Z,100900.16
2022-09-21T12:38:25.765Z,100903.56
2022-09-21T12:41:16.932Z,100908.66
2022-09-21T12:43:48.987Z,100911.94
2022-09-21T12:46:40.305Z,100909.94
2022-09-21T12:49:19.078Z,100899.19
2022-09-21T12:51:56.309Z,100907.16
2022-09-21T12:54:34.031Z,100906.41
2022-09-21T12:57:45.611Z,100909.88
2022-09-21T13:00:24.577Z,100909.47
2022-09-21T13:03:23.130Z,100905.03
2022-09-21T13:06:07.654Z,100899.09
2022-09-21T13:08:47.807Z,100906.97
2022-09-21T13:11:22.303Z,100899.06
2022-09-21T13:14:00.730Z,100909.91
2022-09-21T13:16:41.508Z,100908.41
2022-09-21T13:19:25.714Z,100906.88
2022-09-21T13:22:22.715Z,100895.88
2022-09-21T13:25:16.620Z,100900.16
2022-09-21T13:28:05.203Z,100909.16
2022-09-21T13:30:49.497Z,100907.97
2022-09-21T13:33:24.953Z,100906.38
2022-09-21T13:36:09.067Z,100902.09
2022-09-21T13:38:42.033Z,100902.00
2022-09-21T13:41:20.535Z,100906.72
2022-09-21T13:44:37.556Z,100904.19
2022-09-21T13:47:08.515Z,100906.50
2022-09-21T13:49:54.025Z,100906.63
2022-09-21T13:53:00.137Z,100903.84
2022-09-21T13:55:36.962Z,100901.84
2022-09-21T13:58:27.059Z,100905.34
2022-09-21T14:01:42.395Z,100904.25
2022-09-21T14:04:27.988Z,100910.56
2022-09-21T14:06:59.207Z,100906.50
2022-09-21T14:09:33.020Z,100903.28
2022-09-21T14:12:10.352Z,100909.63
2022-09-21T14:14:44.368Z,100902.91
2022-09-21T14:17:39.632Z,100901.59
2022-09-21T14:20:37.146Z,100904.31
2022-09-21T14:23:17.992Z,100901.69
2022-09-21T14:25:57.288Z,100904.31
2022-09-21T14:28:35.771Z,100904.53
2022-09-21T14:31:16.588Z,100903.16
2022-09-21T14:33:57.792Z,100899.84
2022-09-21T14:36:42.319Z,100887.72
2022-09-21T14:39:43.023Z,100895.34
2022-09-21T14:42:20.400Z,100891.41
2022-09-21T14:44:52.563Z,100895.84
2022-09-21T14:47:54.999Z,100897.09
2022-09-21T14:50:31.646Z,100891.97
2022-09-21T14:53:20.751Z,100886.31
2022-09-21T14:56:23.756Z,100881.22
2022-09-21T14:59:22.210Z,100893.38
2022-09-21T15:02:21.796Z,100885.47
2022-09-21T15:05:21.438Z,100889.72
2022-09-21T15:08:35.416Z,100884.19
2022-09-21T15:11:37.126Z,100882.47
2022-09-21T15:14:14.628Z,100878.75
2022-09-21T15:16:48.090Z,100875.19
2022-09-21T15:19:20.218Z,100880.34
2022-09-21T15:21:52.501Z,100874.56
2022-09-21T15:24:32.700Z,100873.41
2022-09-21T15:27:17.619Z,100877.84
2022-09-21T15:29:50.032Z,100864.00
2022-09-21T15:32:43.785Z,100868.78
2022-09-21T15:35:21.459Z,100870.75
2022-09-21T15:37:51.886Z,100869.59
2022-09-21T15:40:27.598Z,100876.56
2022-09-21T15:43:19.891Z,100873.59
2022-09-21T15:46:00.033Z,100883.22
2022-09-21T15:48:35.173Z,100876.97
2022-09-21T15:51:14.497Z,100877.81
2022-09-21T15:53:58.389Z,100873.09
2022-09-21T15:56:29.580Z,100878.75
2022-09-21T15:59:10.128Z,100873.34
2022-09-21T16:01:48.506Z,100874.25
2022-09-21T16:04:29.232Z,100869.59
2022-09-21T16:07:06.566Z,100873.81
2022-09-21T16:09:46.361Z,100869.78
2022-09-21T16:12:30.159Z,100872.00
2022-09-21T16:15:15.751Z,100860.75
2022-09-21T16:18:06.171Z,100865.81
2022-09-21T16:20:43.083Z,100861.19
2022-09-21T16:23:32.094Z,100866.81
2022-09-21T16:26:03.055Z,100873.22
2022-09-21T16:28:41.019Z,100866.94
2022-09-21T16:31:23.499Z,100875.69
2022-09-21T16:33:55.492Z,100876.06
2022-09-21T16:36:33.317Z,100878.97
2022-09-21T16:39:09.428Z,100879.03
2022-09-21T16:41:52.780Z,100880.69
2022-09-21T16:44:29.909Z,100879.13
2022-09-21T16:47:06.908Z,100883.19
2022-09-21T16:49:36.533Z,100871.69
2022-09-21T16:52:09.182Z,100859.47
2022-09-21T16:54:38.816Z,100856.69
2022-09-21T16:57:08.323Z,100860.31
2022-09-21T16:59:37.472Z,100857.94
2022-09-21T17:02:06.846Z,100861.53
2022-09-21T17:04:36.696Z,100859.56
2022-09-21T17:07:06.278Z,100857.94
2022-09-21T17:09:41.432Z,100847.22
2022-09-21T17:12:13.601Z,100851.56
2022-09-21T17:14:46.984Z,100850.72
2022-09-21T17:17:23.737Z,100845.91
2022-09-21T17:19:54.767Z,100839.50
2022-09-21T17:22:26.495Z,100840.22
2022-09-21T17:24:58.349Z,100834.94
2022-09-21T17:27:29.962Z,100835.25
2022-09-21T17:30:04.207Z,100829.56
2022-09-21T17:32:37.960Z,100827.00
2022-09-21T17:35:20.991Z,100834.06
2022-09-21T17:37:50.571Z,100825.94
2022-09-21T17:40:20.210Z,100817.34
2022-09-21T17:42:49.643Z,100828.69
2022-09-21T17:45:41.450Z,100824.38
2022-09-21T17:48:19.394Z,100822.38
2022-09-21T17:50:49.724Z,100819.53
2022-09-21T17:53:37.643Z,100815.78
2022-09-21T17:56:26.592Z,100804.28
2022-09-21T17:59:33.216Z,100808.22
2022-09-21T18:02:05.632Z,100792.38
2022-09-21T18:04:38.293Z,100803.09
2022-09-21T18:07:09.103Z,100791.50
2022-09-21T18:09:38.717Z,100791.44
2022-09-21T18:12:55.170Z,100783.44
2022-09-21T18:15:29.552Z,100783.81
2022-09-21T18:18:39.159Z,100781.72
2022-09-21T18:21:28.916Z,100776.50
2022-09-21T18:24:30.023Z,100770.78
2022-09-21T18:27:01.844Z,100766.47
2022-09-21T18:29:41.231Z,100767.16
2022-09-21T18:32:37.610Z,100765.63
2022-09-21T18:35:23.674Z,100769.78
2022-09-21T18:38:04.390Z,100763.25
2022-09-21T18:40:49.391Z,100758.44
2022-09-21T18:44:06.620Z,100754.19
2022-09-21T18:46:52.404Z,100759.00
2022-09-21T18:49:48.696Z,100747.50
2022-09-21T18:52:56.442Z,100753.69
2022-09-21T18:55:28.857Z,100749.56
2022-09-21T18:58:00.244Z,100750.94
2022-09-21T19:00:36.388Z,100745.38
2022-09-21T19:03:18.261Z,100738.97
2022-09-21T19:06:00.034Z,100747.56
2022-09-21T19:08:45.920Z,100733.03
2022-09-21T19:11:50.525Z,100745.44
2022-09-21T19:14:43.943Z,100730.75
2022-09-21T19:17:39.612Z,100729.16
2022-09-21T19:20:44.371Z,100726.28
2022-09-21T19:23:36.132Z,100728.47
2022-09-21T19:26:24.239Z,100728.38
2022-09-21T19:29:21.356Z,100723.44
2022-09-21T19:31:50.723Z,100725.84
2022-09-21T19:34:20.944Z,100725.66
2022-09-21T19:36:50.403Z,100729.13
2022-09-21T19:39:20.624Z,100728.97
2022-09-21T19:42:24.402Z,100718.13
2022-09-21T19:45:24.004Z,100717.50
2022-09-21T19:48:10.179Z,100719.41
2022-09-21T19:50:42.457Z,100720.13
2022-09-21T19:53:30.837Z,100723.09
2022-09-21T19:56:24.979Z,100714.34
2022-09-21T19:59:13.213Z,100718.66
2022-09-21T20:01:56.091Z,100715.28
2022-09-21T20:04:43.540Z,100706.66
2022-09-21T20:07:38.893Z,100708.06
2022-09-21T20:10:16.830Z,100701.75
2022-09-21T20:12:51.511Z,100691.81
2022-09-21T20:15:30.320Z,100689.53
2022-09-21T20:18:17.818Z,100688.50
2022-09-21T20:20:47.111Z,100684.50
2022-09-21T20:23:16.379Z,100692.13
2022-09-21T20:25:50.808Z,100696.28
2022-09-21T20:28:21.441Z,100692.97
2022-09-21T20:30:51.417Z,100685.94
2022-09-21T20:33:25.059Z,100680.59
2022-09-21T20:35:57.165Z,100679.56
2022-09-21T20:38:26.577Z,100679.59
2022-09-21T20:40:59.194Z,100675.72
2022-09-21T20:43:32.673Z,100666.88
2022-09-21T20:46:04.369Z,100672.19
2022-09-21T20:48:33.717Z,100666.59
2022-09-21T20:51:07.058Z,100669.53
2022-09-21T20:53:36.657Z,100668.66
2022-09-21T20:56:05.860Z,100667.75
2022-09-21T20:58:36.323Z,100676.03
2022-09-21T21:01:10.873Z,100675.75
2022-09-21T21:03:40.946Z,100666.72
2022-09-21T21:06:15.212Z,100659.59
2022-09-21T21:08:44.996Z,100655.97
2022-09-21T21:11:18.093Z,100650.97
2022-09-21T21:13:48.939Z,100653.78
2022-09-21T21:16:18.469Z,100649.84
2022-09-21T21:18:47.706Z,100641.84
2022-09-21T21:21:17.058Z,100634.81
2022-09-21T21:24:16.789Z,100635.47
2022-09-21T21:27:03.132Z,100626.34
2022-09-21T21:29:33.161Z,100629.91
2022-09-21T21:32:02.607Z,100625.41
2022-09-21T21:34:32.169Z,100620.72
2022-09-21T21:37:04.153Z,100622.53
2022-09-21T21:39:33.459Z,100616.53
2022-09-21T21:42:02.976Z,100615.78
2022-09-21T21:44:32.441Z,100614.75
2022-09-21T21:47:15.514Z,100618.22
2022-09-21T21:49:51.476Z,100608.91
2022-09-21T21:52:21.144Z,100614.72
2022-09-21T21:54:51.053Z,100609.88
2022-09-21T21:57:20.571Z,100612.25
2022-09-21T21:59:49.665Z,100600.91
2022-09-21T22:02:19.149Z,100611.38
2022-09-21T22:04:48.461Z,100612.28
2022-09-21T22:07:17.949Z,100600.97
2022-09-21T22:09:47.678Z,100600.84
2022-09-21T22:12:17.882Z,100601.47
2022-09-21T22:14:48.613Z,100597.09
2022-09-21T22:17:18.118Z,100600.53
2022-09-21T22:19:48.049Z,100594.66
2022-09-21T22:22:17.756Z,100593.47
2022-09-21T22:24:47.258Z,100597.00
2022-09-21T22:27:17.540Z,100588.09
2022-09-21T22:29:47.251Z,100588.88
2022-09-21T22:32:16.673Z,100597.13
2022-09-21T22:34:46.004Z,100589.59
2022-09-21T22:37:15.895Z,100586.16
2022-09-21T22:39:45.531Z,100584.00
2022-09-21T22:42:15.305Z,100590.88
2022-09-21T22:44:44.828Z,100578.44
2022-09-21T22:47:14.249Z,100579.38
2022-09-21T22:49:43.905Z,100575.16
2022-09-21T22:52:13.361Z,100574.63
2022-09-21T22:54:42.747Z,100575.69
2022-09-21T22:57:12.292Z,100576.47
2022-09-21T22:59:41.816Z,100581.78
2022-09-21T23:02:11.398Z,100573.06
2022-09-21T23:04:41.014Z,100576.41
2022-09-21T23:07:10.475Z,100567.88
2022-09-21T23:12:41.457Z,100575.44
2022-09-21T23:15:11.477Z,100571.03
2022-09-21T23:17:40.917Z,100568.63
2022-09-21T23:20:15.807Z,100574.09
2022-09-21T23:22:45.049Z,100566.66
2022-09-21T23:25:14.458Z,100562.66
2022-09-21T23:27:44.496Z,100565.41
2022-09-21T23:30:16.490Z,100564.84
2022-09-21T23:32:45.867Z,100557.47
2022-09-21T23:35:15.331Z,100564.81
2022-09-21T23:37:44.715Z,100554.19
2022-09-21T23:40:14.102Z,100551.88
2022-09-21T23:42:46.447Z,100560.25
2022-09-21T23:45:18.600Z,100556.09
2022-09-21T23:47:47.930Z,100552.13
2022-09-21T23:50:17.866Z,100553.06
2022-09-21T23:52:47.241Z,100561.56
2022-09-21T23:55:16.536Z,100551.44
2022-09-21T23:57:46.209Z,100540.25
